createdAt,value
2022-10-18T00:00:23.571Z,99.63
2022-10-18T00:01:23.989Z,99.81
2022-10-18T00:02:24.368Z,99.88
2022-10-18T00:03:25.021Z,100
2022-10-18T00:04:25.107Z,100
2022-10-18T00:05:25.658Z,100
2022-10-18T00:06:26.179Z,100
2022-10-18T00:07:26.338Z,100
2022-10-18T00:08:27.205Z,100
2022-10-18T00:09:27.379Z,100
2022-10-18T00:10:27.834Z,100
2022-10-18T00:11:28.149Z,100
2022-10-18T00:12:28.469Z,100
2022-10-18T00:13:28.881Z,100
2022-10-18T00:14:29.199Z,100
2022-10-18T00:15:29.716Z,100
2022-10-18T00:16:30.434Z,99.81
2022-10-18T00:17:30.797Z,99.64
2022-10-18T00:18:31.344Z,99.7
2022-10-18T00:19:31.246Z,100
2022-10-18T00:20:32.001Z,100
2022-10-18T00:21:32.453Z,100
2022-10-18T00:22:35.507Z,100
2022-10-18T00:23:35.107Z,100
2022-10-18T00:24:33.461Z,100
2022-10-18T00:25:33.772Z,100
2022-10-18T00:26:34.191Z,100
2022-10-18T00:27:35.529Z,100
2022-10-18T00:28:35.980Z,100
2022-10-18T00:29:35.439Z,100
2022-10-18T00:30:35.797Z,100
2022-10-18T00:31:37.804Z,100
2022-10-18T00:32:39.142Z,100
2022-10-18T00:33:37.108Z,100
2022-10-18T00:34:39.171Z,100
2022-10-18T00:35:37.826Z,100
2022-10-18T00:36:38.458Z,100
2022-10-18T00:37:38.667Z,100
2022-10-18T00:38:39.397Z,100
2022-10-18T00:39:39.874Z,100
2022-10-18T00:40:39.810Z,100
2022-10-18T00:41:40.336Z,100
2022-10-18T00:42:40.748Z,100
2022-10-18T00:45:45.278Z,100
2022-10-18T00:46:47.948Z,100
2022-10-18T00:49:55.238Z,100
2022-10-18T00:50:53.493Z,100
2022-10-18T00:53:59.507Z,100
2022-10-18T00:55:00.700Z,100
2022-10-18T00:56:00.168Z,100
2022-10-18T00:57:01.728Z,100
2022-10-18T00:58:02.044Z,100
2022-10-18T00:59:02.221Z,100
2022-10-18T01:00:02.463Z,100
2022-10-18T01:01:02.174Z,100
2022-10-18T01:02:02.971Z,100
2022-10-18T01:03:03.109Z,100
2022-10-18T01:04:03.689Z,100
2022-10-18T01:05:04.657Z,100
2022-10-18T01:06:04.655Z,100
2022-10-18T01:21:54.520Z,100
2022-10-18T01:22:58.413Z,100
2022-10-18T01:32:19.675Z,100
2022-10-18T01:34:23.228Z,100
2022-10-18T01:37:33.110Z,100
2022-10-18T01:38:33.294Z,100
2022-10-18T01:40:36.935Z,100
2022-10-18T01:41:37.449Z,100
2022-10-18T01:42:35.504Z,100
2022-10-18T01:43:37.261Z,100
2022-10-18T01:44:38.792Z,100
2022-10-18T01:45:36.343Z,100
2022-10-18T01:46:39.939Z,100
2022-10-18T01:47:37.544Z,100
2022-10-18T01:48:37.767Z,100
2022-10-18T01:49:38.215Z,100
2022-10-18T01:50:38.837Z,100
2022-10-18T01:51:39.052Z,100
2022-10-18T01:53:43.668Z,100
2022-10-18T01:54:47.831Z,100
2022-10-18T02:11:25.971Z,100
2022-10-18T02:12:26.282Z,100
2022-10-18T02:14:27.934Z,100
2022-10-18T02:17:33.381Z,100
2022-10-18T02:18:41.478Z,100
2022-10-18T02:19:40.368Z,100
2022-10-18T02:20:39.243Z,100
2022-10-18T02:21:41.187Z,100
2022-10-18T02:22:40.490Z,100
2022-10-18T02:23:39.667Z,100
2022-10-18T02:24:44.182Z,100
2022-10-18T02:25:41.725Z,100
2022-10-18T02:26:42.446Z,100
2022-10-18T02:27:42.563Z,100
2022-10-18T02:28:44.628Z,100
2022-10-18T02:29:44.513Z,100
2022-10-18T02:37:04.959Z,100
2022-10-18T02:38:07.619Z,100
2022-10-18T02:40:10.712Z,100
2022-10-18T02:41:09.998Z,100
2022-10-18T02:42:11.130Z,100
2022-10-18T02:43:10.628Z,100
2022-10-18T02:44:11.048Z,100
2022-10-18T02:45:12.569Z,100
2022-10-18T02:46:12.076Z,100
2022-10-18T02:47:12.700Z,100
2022-10-18T02:48:12.593Z,100
2022-10-18T02:49:12.915Z,100
2022-10-18T02:50:14.248Z,100
2022-10-18T02:51:13.742Z,100
2022-10-18T02:52:14.264Z,100
2022-10-18T02:53:14.471Z,100
2022-10-18T02:54:14.883Z,100
2022-10-18T02:55:15.865Z,100
2022-10-18T02:56:16.448Z,100
2022-10-18T02:57:16.040Z,100
2022-10-18T02:58:16.769Z,100
2022-10-18T02:59:17.280Z,100
2022-10-18T03:00:17.791Z,100
2022-10-18T03:01:17.806Z,100
2022-10-18T03:02:18.317Z,100
2022-10-18T03:03:18.638Z,100
2022-10-18T03:04:19.432Z,100
2022-10-18T03:05:19.368Z,100
2022-10-18T03:06:19.891Z,100
2022-10-18T03:07:20.197Z,100
2022-10-18T03:08:20.509Z,100
2022-10-18T03:09:21.039Z,100
2022-10-18T03:10:21.447Z,100
2022-10-18T03:11:21.868Z,100
2022-10-18T03:12:22.278Z,100
2022-10-18T03:13:22.865Z,100
2022-10-18T03:14:23.207Z,100
2022-10-18T03:15:23.286Z,100
2022-10-18T03:16:24.045Z,100
2022-10-18T03:17:24.355Z,100
2022-10-18T03:18:24.543Z,100
2022-10-18T03:19:25.396Z,100
2022-10-18T03:20:25.506Z,100
2022-10-18T03:21:25.912Z,100
2022-10-18T03:22:26.467Z,100
2022-10-18T03:23:26.596Z,100
2022-10-18T03:24:27.058Z,100
2022-10-18T03:25:27.581Z,100
2022-10-18T03:26:27.792Z,100
2022-10-18T03:27:28.532Z,100
2022-10-18T03:28:28.873Z,100
2022-10-18T03:29:29.145Z,100
2022-10-18T03:30:29.879Z,100
2022-10-18T03:32:30.591Z,100
2022-10-18T03:33:31.837Z,100
2022-10-18T03:34:31.228Z,100
2022-10-18T03:35:31.647Z,100
2022-10-18T03:36:32.162Z,100
2022-10-18T03:37:32.475Z,100
2022-10-18T03:38:32.892Z,100
2022-10-18T03:39:33.178Z,100
2022-10-18T03:40:33.673Z,100
2022-10-18T03:41:33.941Z,100
2022-10-18T03:42:34.850Z,100
2022-10-18T03:43:34.975Z,100
2022-10-18T03:44:35.283Z,100
2022-10-18T03:45:36.111Z,100
2022-10-18T03:46:36.227Z,100
2022-10-18T03:47:36.442Z,100
2022-10-18T03:48:36.772Z,100
2022-10-18T03:49:37.378Z,100
2022-10-18T03:50:37.578Z,100
2022-10-18T03:51:38.199Z,100
2022-10-18T03:52:38.626Z,100
2022-10-18T03:53:38.929Z,100
2022-10-18T03:54:39.351Z,100
2022-10-18T03:55:39.877Z,100
2022-10-18T03:56:40.179Z,100
2022-10-18T03:57:40.390Z,100
2022-10-18T03:58:41.006Z,100
2022-10-18T03:59:41.530Z,100
2022-10-18T04:00:41.745Z,100
2022-10-18T04:01:42.504Z,100
2022-10-18T04:02:42.773Z,100
2022-10-18T04:03:43.000Z,100
2022-10-18T04:04:43.315Z,100
2022-10-18T04:05:44.543Z,100
2022-10-18T04:06:44.233Z,100
2022-10-18T04:07:44.858Z,100
2022-10-18T04:08:45.171Z,100
2022-10-18T04:09:45.486Z,100
2022-10-18T04:10:46.309Z,100
2022-10-18T04:11:46.213Z,100
2022-10-18T04:12:46.633Z,100
2022-10-18T04:13:47.255Z,100
2022-10-18T04:14:47.367Z,100
2022-10-18T04:15:47.979Z,100
2022-10-18T04:16:48.347Z,100
2022-10-18T04:17:48.829Z,100
2022-10-18T04:18:49.138Z,100
2022-10-18T04:19:49.747Z,100
2022-10-18T04:20:49.974Z,100
2022-10-18T04:21:50.284Z,100
2022-10-18T04:22:51.577Z,100
2022-10-18T04:23:51.318Z,100
2022-10-18T04:24:51.624Z,100
2022-10-18T04:25:52.045Z,100
2022-10-18T04:26:52.975Z,100
2022-10-18T04:27:52.879Z,100
2022-10-18T04:28:53.382Z,100
2022-10-18T04:29:53.822Z,100
2022-10-18T04:30:54.434Z,100
2022-10-18T04:31:54.545Z,100
2022-10-18T04:32:54.970Z,100
2022-10-18T04:33:55.369Z,100
2022-10-18T04:34:55.706Z,100
2022-10-18T04:35:56.111Z,100
2022-10-18T04:36:56.524Z,100
2022-10-18T04:37:57.038Z,100
2022-10-18T04:38:57.558Z,100
2022-10-18T04:39:58.204Z,100
2022-10-18T04:40:58.182Z,100
2022-10-18T04:41:58.614Z,100
2022-10-18T04:42:59.121Z,100
2022-10-18T04:43:59.532Z,100
2022-10-18T04:44:59.742Z,100
2022-10-18T04:46:00.158Z,100
2022-10-18T04:47:01.091Z,100
2022-10-18T04:48:01.197Z,100
2022-10-18T04:49:01.511Z,100
2022-10-18T04:50:01.819Z,100
2022-10-18T04:51:02.271Z,100
2022-10-18T04:52:02.760Z,100
2022-10-18T04:53:03.383Z,100
2022-10-18T04:54:03.672Z,100
2022-10-18T04:55:04.423Z,100
2022-10-18T04:56:04.631Z,100
2022-10-18T04:57:05.051Z,100
2022-10-18T04:58:05.051Z,100
2022-10-18T04:59:05.978Z,100
2022-10-18T05:00:07.018Z,100
2022-10-18T05:01:07.745Z,100
2022-10-18T05:02:06.827Z,100
2022-10-18T05:03:07.650Z,100
2022-10-18T05:04:08.111Z,100
2022-10-18T05:05:11.665Z,100
2022-10-18T05:06:11.555Z,100
2022-10-18T05:07:12.074Z,100
2022-10-18T05:08:13.108Z,100
2022-10-18T05:09:13.418Z,100
2022-10-18T05:10:13.021Z,100
2022-10-18T05:11:13.578Z,100
2022-10-18T05:12:14.052Z,100
2022-10-18T05:13:14.420Z,100
2022-10-18T05:14:14.885Z,100
2022-10-18T05:15:15.505Z,100
2022-10-18T05:16:15.519Z,100
2022-10-18T05:17:16.033Z,100
2022-10-18T05:18:16.293Z,100
2022-10-18T05:19:16.865Z,100
2022-10-18T05:20:17.590Z,100
2022-10-18T05:21:17.694Z,100
2022-10-18T05:22:18.125Z,100
2022-10-18T05:23:18.437Z,100
2022-10-18T05:24:20.265Z,100
2022-10-18T05:25:19.495Z,100
2022-10-18T05:26:19.875Z,100
2022-10-18T05:27:20.249Z,100
2022-10-18T05:28:38.578Z,100
2022-10-18T05:29:22.369Z,100
2022-10-18T05:30:22.368Z,100
2022-10-18T05:31:22.888Z,100
2022-10-18T05:32:23.093Z,100
2022-10-18T05:33:23.710Z,100
2022-10-18T05:34:24.233Z,100
2022-10-18T05:35:24.445Z,100
2022-10-18T05:36:24.862Z,100
2022-10-18T05:37:28.317Z,100
2022-10-18T05:38:26.246Z,100
2022-10-18T05:39:26.520Z,100
2022-10-18T05:40:26.935Z,100
2022-10-18T05:41:27.210Z,100
2022-10-18T05:42:27.983Z,100
2022-10-18T05:43:29.023Z,100
2022-10-18T05:44:28.566Z,100
2022-10-18T05:45:29.012Z,100
2022-10-18T05:46:29.437Z,100
2022-10-18T05:47:29.999Z,100
2022-10-18T05:48:30.274Z,100
2022-10-18T05:49:30.784Z,100
2022-10-18T05:50:34.460Z,100
2022-10-18T05:51:34.222Z,100
2022-10-18T05:52:35.068Z,100
2022-10-18T05:53:37.420Z,100
2022-10-18T05:54:35.424Z,100
2022-10-18T05:55:36.253Z,100
2022-10-18T05:56:36.401Z,100
2022-10-18T05:57:36.774Z,100
2022-10-18T05:58:37.296Z,100
2022-10-18T05:59:37.709Z,100
2022-10-18T06:00:38.137Z,100
2022-10-18T06:02:40.351Z,100
2022-10-18T06:03:40.606Z,100
2022-10-18T06:04:41.123Z,100
2022-10-18T06:05:41.555Z,100
2022-10-18T06:06:41.859Z,100
2022-10-18T06:07:42.175Z,100
2022-10-18T06:08:44.226Z,100
2022-10-18T06:09:43.519Z,100
2022-10-18T06:10:43.826Z,100
2022-10-18T06:11:44.051Z,100
2022-10-18T06:12:44.458Z,100
2022-10-18T06:13:47.195Z,100
2022-10-18T06:14:45.359Z,100
2022-10-18T06:15:45.810Z,100
2022-10-18T06:16:46.214Z,100
2022-10-18T06:17:46.841Z,100
2022-10-18T06:19:49.497Z,100
2022-10-18T06:20:50.238Z,100
2022-10-18T06:21:50.549Z,100
2022-10-18T06:22:52.906Z,100
2022-10-18T06:23:53.533Z,100
2022-10-18T06:24:56.491Z,100
2022-10-18T06:25:58.567Z,100
2022-10-18T06:26:56.258Z,100
2022-10-18T06:27:56.538Z,100
2022-10-18T06:28:56.959Z,100
2022-10-18T06:29:57.465Z,100
2022-10-18T06:30:58.304Z,100
2022-10-18T06:31:58.149Z,100
2022-10-18T06:33:01.476Z,100
2022-10-18T06:33:59.037Z,100
2022-10-18T06:34:59.559Z,100
2022-10-18T06:36:02.221Z,100
2022-10-18T06:37:00.384Z,100
2022-10-18T06:38:00.700Z,100
2022-10-18T06:39:01.092Z,100
2022-10-18T06:40:01.838Z,100
2022-10-18T06:41:04.015Z,100
2022-10-18T06:42:02.772Z,100
2022-10-18T06:43:20.018Z,100
2022-10-18T06:44:03.510Z,100
2022-10-18T06:45:04.340Z,100
2022-10-18T06:46:05.891Z,100
2022-10-18T06:47:04.645Z,100
2022-10-18T06:48:05.927Z,100
2022-10-18T06:49:05.480Z,100
2022-10-18T06:50:06.988Z,100
2022-10-18T06:51:07.847Z,100
2022-10-18T06:52:07.038Z,100
2022-10-18T06:53:07.246Z,100
2022-10-18T06:54:17.334Z,100
2022-10-18T06:55:10.736Z,100
2022-10-18T06:56:13.217Z,100
2022-10-18T06:57:11.985Z,98.94
2022-10-18T06:58:11.994Z,98.69
2022-10-18T06:59:12.710Z,99.06
2022-10-18T07:00:13.944Z,99
2022-10-18T07:01:16.259Z,99.27
2022-10-18T07:02:18.154Z,99.94
2022-10-18T07:03:15.615Z,98.92
2022-10-18T07:04:16.024Z,99.03
2022-10-18T07:05:16.638Z,98.5
2022-10-18T07:06:18.904Z,98.3
2022-10-18T07:07:17.475Z,98.22
2022-10-18T07:08:18.912Z,97.4
2022-10-18T07:09:18.310Z,97.33
2022-10-18T07:10:18.934Z,97.18
2022-10-18T07:11:22.395Z,96.9
2022-10-18T07:12:19.857Z,96.98
2022-10-18T07:13:32.027Z,96.92
2022-10-18T07:14:29.015Z,96.88
2022-10-18T07:15:26.818Z,96.93
2022-10-18T07:16:27.261Z,96.92
2022-10-18T07:17:28.103Z,97.55
2022-10-18T07:18:28.199Z,97.72
2022-10-18T07:19:28.383Z,97.67
2022-10-18T07:20:28.924Z,97.99
2022-10-18T07:21:29.443Z,98.42
2022-10-18T07:22:30.544Z,98.73
2022-10-18T07:23:32.945Z,98.78
2022-10-18T07:24:30.660Z,98.72
2022-10-18T07:25:31.517Z,98.56
2022-10-18T07:26:33.906Z,98.39
2022-10-18T07:27:35.692Z,98.58
2022-10-18T07:28:33.237Z,98.44
2022-10-18T07:29:35.031Z,98.65
2022-10-18T07:30:34.625Z,99.02
2022-10-18T07:31:35.294Z,99.29
2022-10-18T07:32:34.813Z,98.99
2022-10-18T07:33:36.495Z,98.97
2022-10-18T07:34:35.983Z,99.31
2022-10-18T07:35:36.197Z,99.4
2022-10-18T07:36:36.615Z,99.49
2022-10-18T07:37:37.335Z,99.7
2022-10-18T07:38:37.746Z,99.33
2022-10-18T07:39:37.974Z,99.15
2022-10-18T07:40:38.385Z,99.75
2022-10-18T07:41:38.690Z,99.87
2022-10-18T07:42:39.315Z,100
2022-10-18T07:43:44.746Z,99.99
2022-10-18T07:44:42.276Z,99.83
2022-10-18T07:46:44.670Z,99.81
2022-10-18T07:47:45.181Z,99.71
2022-10-18T07:48:45.729Z,99.62
2022-10-18T07:49:46.347Z,99.56
2022-10-18T07:50:46.539Z,99.81
2022-10-18T07:51:46.924Z,100
2022-10-18T07:52:47.367Z,100
2022-10-18T07:53:48.299Z,100
2022-10-18T07:55:48.614Z,100
2022-10-18T07:56:49.446Z,100
2022-10-18T07:57:49.774Z,100
2022-10-18T07:58:52.946Z,100
2022-10-18T07:59:50.588Z,100
2022-10-18T08:00:50.892Z,100
2022-10-18T08:01:51.595Z,100
2022-10-18T08:02:56.748Z,100
2022-10-18T08:03:54.308Z,100
2022-10-18T08:04:54.813Z,100
2022-10-18T08:05:55.444Z,100
2022-10-18T08:06:55.541Z,100
2022-10-18T08:07:56.484Z,100
2022-10-18T08:08:56.634Z,100
2022-10-18T08:09:57.004Z,100
2022-10-18T08:11:03.573Z,100
2022-10-18T08:12:00.974Z,100
2022-10-18T08:13:01.545Z,100
2022-10-18T08:14:01.845Z,100
2022-10-18T08:15:02.504Z,100
2022-10-18T08:16:05.972Z,100
2022-10-18T08:17:03.494Z,100
2022-10-18T08:18:04.022Z,100
2022-10-18T08:19:04.334Z,100
2022-10-18T08:20:19.042Z,100
2022-10-18T08:21:11.105Z,100
2022-10-18T08:22:08.635Z,100
2022-10-18T08:23:09.264Z,100
2022-10-18T08:24:09.652Z,100
2022-10-18T08:25:10.420Z,100
2022-10-18T08:26:13.206Z,100
2022-10-18T08:27:10.853Z,100
2022-10-18T08:28:11.479Z,100
2022-10-18T08:29:22.456Z,100
2022-10-18T08:30:16.902Z,100
2022-10-18T08:31:18.860Z,100
2022-10-18T08:32:17.757Z,100
2022-10-18T08:33:17.835Z,100
2022-10-18T08:34:19.812Z,100
2022-10-18T08:35:18.875Z,100
2022-10-18T08:36:19.054Z,100
2022-10-18T08:37:19.505Z,100
2022-10-18T08:38:20.125Z,100
2022-10-18T08:39:20.539Z,99.58
2022-10-18T08:40:20.948Z,99.49
2022-10-18T08:44:32.565Z,98.53
2022-10-18T08:45:42.359Z,98.35
2022-10-18T08:46:38.926Z,98.49
2022-10-18T08:47:42.785Z,98.49
2022-10-18T08:48:45.897Z,98.57
2022-10-18T08:50:49.694Z,98.87
2022-10-18T08:51:51.115Z,98.98
2022-10-18T08:57:04.582Z,98.23
2022-10-18T08:58:03.013Z,98.28
2022-10-18T08:59:03.975Z,98.38
2022-10-18T09:00:16.595Z,98.13
2022-10-18T09:26:21.152Z,96.54
2022-10-18T09:27:19.011Z,96.5
2022-10-18T09:36:36.059Z,95.86
2022-10-18T09:37:35.058Z,95.55
2022-10-18T09:39:40.079Z,95.89
2022-10-18T09:41:55.257Z,94.08
2022-10-18T09:44:54.354Z,93.04
2022-10-18T09:45:54.466Z,93.25
2022-10-18T09:58:20.558Z,87.61
2022-10-18T10:02:26.818Z,85.93
2022-10-18T10:03:27.240Z,85.9
2022-10-18T10:04:28.062Z,86.49
2022-10-18T10:05:28.270Z,86.52
2022-10-18T10:06:31.364Z,85.38
2022-10-18T10:08:34.400Z,83.58
2022-10-18T10:10:34.036Z,84.46
2022-10-18T10:12:39.791Z,83.94
2022-10-18T10:13:38.047Z,84.12
2022-10-18T10:20:58.268Z,82.41
2022-10-18T10:23:07.651Z,80.76
2022-10-18T10:24:00.218Z,81.49
2022-10-18T10:25:00.954Z,81.27
2022-10-18T10:27:06.204Z,80.29
2022-10-18T10:28:07.405Z,80.35
2022-10-18T10:32:14.254Z,78.36
2022-10-18T10:34:29.362Z,78.27
2022-10-18T10:36:21.317Z,77.95
2022-10-18T10:39:24.712Z,76.83
2022-10-18T10:40:28.379Z,77.99
2022-10-18T10:41:27.311Z,76.74
2022-10-18T10:42:26.683Z,76.01
2022-10-18T10:44:34.067Z,75.47
2022-10-18T10:46:36.357Z,76.77
2022-10-18T10:47:37.057Z,77.29
2022-10-18T10:49:46.385Z,77.58
2022-10-18T10:51:41.177Z,77.01
2022-10-18T10:52:42.079Z,76.94
2022-10-18T10:54:50.410Z,74.4
2022-10-18T10:55:45.085Z,76.01
2022-10-18T10:57:52.167Z,73.84
2022-10-18T10:58:52.347Z,73.27
2022-10-18T10:59:57.105Z,71.92
2022-10-18T11:00:56.692Z,71.61
2022-10-18T11:08:23.071Z,70.72
2022-10-18T11:10:26.345Z,67.9
2022-10-18T11:14:36.783Z,67.24
2022-10-18T11:18:49.146Z,65.55
2022-10-18T11:21:53.137Z,66.49
2022-10-18T11:23:51.435Z,64.93
2022-10-18T11:24:51.729Z,65.56
2022-10-18T11:27:03.829Z,63.42
2022-10-18T12:05:58.649Z,67.4
2022-10-18T12:06:57.326Z,66.94
2022-10-18T12:08:07.386Z,65.67
2022-10-18T12:10:04.432Z,65.35
2022-10-18T12:11:09.956Z,65.37
2022-10-18T12:13:23.249Z,65.65
2022-10-18T12:15:23.186Z,65.86
2022-10-18T12:16:45.595Z,64.73
2022-10-18T12:18:28.025Z,65.53
2022-10-18T12:19:30.070Z,65.83
2022-10-18T12:21:31.417Z,65.8
2022-10-18T12:22:36.549Z,66.21
2022-10-18T12:24:37.988Z,66.6
2022-10-18T12:25:42.517Z,66.93
2022-10-18T12:26:40.226Z,67.74
2022-10-18T12:27:50.179Z,67.52
2022-10-18T12:34:02.665Z,67.97
2022-10-18T12:43:23.855Z,70.09
2022-10-18T12:44:23.785Z,70.34
2022-10-18T12:46:21.450Z,70.77
2022-10-18T12:49:41.479Z,70.61
2022-10-18T12:50:35.039Z,70.3
2022-10-18T12:51:32.651Z,70.54
2022-10-18T12:52:33.264Z,70.45
2022-10-18T12:53:34.574Z,70.82
2022-10-18T12:54:37.484Z,70.09
2022-10-18T12:55:40.515Z,69.98
2022-10-18T12:56:43.731Z,70.2
2022-10-18T12:58:44.979Z,70.08
2022-10-18T12:59:45.387Z,70.25
2022-10-18T13:00:56.067Z,70.31
2022-10-18T13:03:55.356Z,70.45
2022-10-18T13:04:52.961Z,71.01
2022-10-18T13:09:18.473Z,74.22
2022-10-18T13:39:23.021Z,71.91
2022-10-18T13:40:25.801Z,71.83
2022-10-18T13:41:32.700Z,72.42
2022-10-18T13:42:33.085Z,72.27
2022-10-18T13:44:36.672Z,72.12
2022-10-18T13:47:38.333Z,72.03
2022-10-18T13:50:47.769Z,71.87
2022-10-18T13:51:59.141Z,72.26
2022-10-18T14:07:26.992Z,73.09
2022-10-18T14:09:44.579Z,74
2022-10-18T14:11:37.230Z,73.94
2022-10-18T14:12:44.330Z,74.2
2022-10-18T14:13:48.536Z,74.16
2022-10-18T14:15:48.753Z,75.64
2022-10-18T14:17:58.889Z,78.26
2022-10-18T14:18:55.018Z,80.08
2022-10-18T14:28:21.710Z,89.76
2022-10-18T14:29:20.191Z,90.92
2022-10-18T14:30:20.597Z,91.38
2022-10-18T14:31:20.293Z,91.14
2022-10-18T14:32:30.203Z,91.28
2022-10-18T14:33:27.673Z,91.67
2022-10-18T14:34:25.803Z,91.28
2022-10-18T14:35:33.217Z,91.28
2022-10-18T14:36:29.466Z,91.58
2022-10-18T14:37:30.629Z,91.57
2022-10-18T14:38:29.241Z,91.33
2022-10-18T14:39:28.848Z,91.3
2022-10-18T14:40:40.416Z,90.6
2022-10-18T14:42:34.974Z,90.2
2022-10-18T14:43:35.423Z,89.83
2022-10-18T14:44:36.041Z,90.17
2022-10-18T14:45:36.354Z,90.11
2022-10-18T14:46:48.243Z,90.11
2022-10-18T14:47:40.634Z,90.28
2022-10-18T14:48:41.085Z,90.21
2022-10-18T14:49:45.706Z,89.86
2022-10-18T14:50:46.113Z,89.96
2022-10-18T14:51:46.434Z,89.7
2022-10-18T14:52:44.287Z,90.01
2022-10-18T14:53:44.609Z,90.46
2022-10-18T14:54:46.042Z,90.68
2022-10-18T14:55:54.857Z,91.3
2022-10-18T14:56:47.975Z,91.47
2022-10-18T14:57:48.074Z,91.3
2022-10-18T14:58:48.425Z,91.08
2022-10-18T14:59:56.465Z,90.77
2022-10-18T15:00:49.360Z,90.76
2022-10-18T15:01:58.890Z,90.85
2022-10-18T15:02:51.631Z,90.82
2022-10-18T15:03:56.647Z,91.25
2022-10-18T15:06:00.140Z,91.06
2022-10-18T15:06:59.128Z,91.07
2022-10-18T15:07:59.332Z,91.13
2022-10-18T15:09:02.005Z,91.08
2022-10-18T15:10:01.871Z,91.1
2022-10-18T15:11:00.584Z,91.08
2022-10-18T15:12:03.458Z,91.19
2022-10-18T15:13:09.864Z,91.54
2022-10-18T15:14:07.771Z,91.41
2022-10-18T15:15:07.164Z,91.06
2022-10-18T15:16:06.251Z,91.12
2022-10-18T15:17:16.807Z,91.03
2022-10-18T15:18:22.307Z,90.93
2022-10-18T15:22:32.358Z,90.77
2022-10-18T15:23:25.634Z,90.93
2022-10-18T15:25:31.984Z,90.78
2022-10-18T15:26:30.589Z,90.44
2022-10-18T15:27:33.280Z,90.24
2022-10-18T15:28:36.588Z,90.21
2022-10-18T15:29:35.493Z,90.45
2022-10-18T15:30:40.142Z,90.17
2022-10-18T15:31:41.772Z,90.04
2022-10-18T15:32:49.571Z,89.92
2022-10-18T15:33:42.178Z,89.94
2022-10-18T15:34:42.735Z,89.98
2022-10-18T15:35:42.906Z,90.22
2022-10-18T15:37:46.628Z,90.6
2022-10-18T15:38:47.547Z,90.4
2022-10-18T15:39:47.775Z,90.33
2022-10-18T15:40:48.288Z,90.38
2022-10-18T15:42:02.125Z,90.02
2022-10-18T15:43:01.408Z,89.85
2022-10-18T15:44:56.223Z,89.99
2022-10-18T15:46:05.240Z,89.9
2022-10-18T15:50:05.655Z,89.18
2022-10-18T15:51:07.983Z,89.07
2022-10-18T15:57:18.645Z,89.01
2022-10-18T15:58:27.316Z,89.03
2022-10-18T15:59:29.677Z,89.06
2022-10-18T16:00:22.414Z,88.99
2022-10-18T16:01:36.945Z,88.82
2022-10-18T16:02:24.686Z,88.91
2022-10-18T16:03:25.468Z,89.29
2022-10-18T16:04:28.076Z,89.3
2022-10-18T16:05:25.718Z,89.13
2022-10-18T16:06:26.141Z,89.2
2022-10-18T16:07:26.560Z,89.18
2022-10-18T16:08:29.017Z,88.99
2022-10-18T16:09:29.337Z,88.86
2022-10-18T16:10:27.806Z,88.85
2022-10-18T16:11:28.328Z,89.09
2022-10-18T16:12:28.604Z,88.87
2022-10-18T16:13:29.149Z,89.19
2022-10-18T16:14:29.668Z,88.86
2022-10-18T16:15:30.085Z,88.78
2022-10-18T16:16:30.611Z,88.89
2022-10-18T16:17:32.070Z,88.72
2022-10-18T16:18:31.332Z,89.07
2022-10-18T16:19:32.160Z,89
2022-10-18T16:20:32.070Z,88.68
2022-10-18T16:21:37.468Z,88.75
2022-10-18T16:22:37.098Z,88.84
2022-10-18T16:23:35.569Z,88.63
2022-10-18T16:24:35.741Z,88.54
2022-10-18T16:25:36.396Z,88.72
2022-10-18T16:26:37.530Z,88.92
2022-10-18T16:27:37.103Z,88.62
2022-10-18T16:28:37.563Z,88.62
2022-10-18T16:29:37.763Z,88.72
2022-10-18T16:30:39.500Z,88.58
2022-10-18T16:31:38.646Z,88.48
2022-10-18T16:32:40.336Z,88.51
2022-10-18T16:33:39.528Z,88.55
2022-10-18T16:34:40.021Z,88.48
2022-10-18T16:35:40.254Z,88.56
2022-10-18T16:36:41.349Z,88.5
2022-10-18T16:37:41.197Z,88.32
2022-10-18T16:38:41.713Z,88.23
2022-10-18T16:39:42.026Z,88.57
2022-10-18T16:40:42.448Z,88.44
2022-10-18T16:41:42.961Z,88.57
2022-10-18T16:42:43.373Z,88.27
2022-10-18T16:43:45.229Z,88.23
2022-10-18T16:44:43.998Z,88.55
2022-10-18T16:45:44.622Z,88.62
2022-10-18T16:46:46.291Z,88.58
2022-10-18T16:47:45.244Z,88.57
2022-10-18T16:48:46.485Z,88.68
2022-10-18T16:49:46.179Z,88.41
2022-10-18T16:50:47.519Z,88.54
2022-10-18T16:51:47.321Z,88.62
2022-10-18T16:52:47.330Z,88.53
2022-10-18T16:53:48.266Z,88.42
2022-10-18T16:54:48.331Z,88.58
2022-10-18T16:55:52.744Z,88.75
2022-10-18T16:56:50.577Z,88.86
2022-10-18T16:57:51.662Z,88.77
2022-10-18T16:58:51.671Z,88.78
2022-10-18T16:59:51.687Z,88.58
2022-10-18T17:00:52.985Z,88.53
2022-10-18T17:01:52.489Z,88.74
2022-10-18T17:02:53.132Z,88.86
2022-10-18T17:03:53.543Z,88.88
2022-10-18T17:04:53.551Z,88.81
2022-10-18T17:05:54.280Z,88.96
2022-10-18T17:06:57.568Z,89.02
2022-10-18T17:07:55.215Z,88.92
2022-10-18T17:08:56.865Z,89.05
2022-10-18T17:09:56.109Z,89.04
2022-10-18T17:10:58.405Z,89.27
2022-10-18T17:11:56.878Z,89.5
2022-10-18T17:12:57.185Z,89.49
2022-10-18T17:13:57.508Z,89.44
2022-10-18T17:14:58.022Z,89.55
2022-10-18T17:15:59.975Z,89.46
2022-10-18T17:16:58.854Z,89.47
2022-10-18T17:17:59.172Z,89.69
2022-10-18T17:19:03.030Z,89.56
2022-10-18T17:20:00.921Z,89.68
2022-10-18T17:21:01.544Z,89.61
2022-10-18T17:22:02.808Z,89.57
2022-10-18T17:23:02.270Z,89.4
2022-10-18T17:24:02.869Z,89.52
2022-10-18T17:25:03.576Z,89.43
2022-10-18T17:26:21.983Z,89.66
2022-10-18T17:27:06.083Z,89.93
2022-10-18T17:28:07.221Z,89.96
2022-10-18T17:29:07.899Z,90.42
2022-10-18T17:30:08.466Z,90.16
2022-10-18T17:31:07.852Z,89.84
2022-10-18T17:32:08.268Z,89.71
2022-10-18T17:33:08.855Z,89.9
2022-10-18T17:34:09.611Z,90.09
2022-10-18T17:35:10.033Z,90.28
2022-10-18T17:36:09.841Z,90.31
2022-10-18T17:37:10.252Z,90.41
2022-10-18T17:38:10.666Z,90.78
2022-10-18T17:39:11.705Z,90.92
2022-10-18T17:40:11.905Z,91.15
2022-10-18T17:41:12.224Z,91.02
2022-10-18T17:42:12.329Z,90.82
2022-10-18T17:43:12.756Z,91.51
2022-10-18T17:44:13.168Z,91.57
2022-10-18T17:45:13.645Z,91.26
2022-10-18T17:46:14.200Z,91.29
2022-10-18T17:47:14.617Z,91.51
2022-10-18T17:48:14.896Z,91.79
2022-10-18T17:49:15.344Z,91.58
2022-10-18T17:50:16.580Z,91.91
2022-10-18T17:51:17.377Z,91.87
2022-10-18T17:52:16.490Z,91.88
2022-10-18T17:53:17.185Z,92.12
2022-10-18T17:54:18.000Z,92.18
2022-10-18T17:55:18.042Z,92.27
2022-10-18T17:56:18.156Z,92.25
2022-10-18T17:57:18.867Z,92.44
2022-10-18T17:58:19.096Z,92.5
2022-10-18T17:59:19.515Z,92.25
2022-10-18T18:00:20.128Z,92.23
2022-10-18T18:01:22.646Z,92.42
2022-10-18T18:02:20.860Z,92.62
2022-10-18T18:03:21.528Z,92.6
2022-10-18T18:04:21.747Z,92.69
2022-10-18T18:05:22.010Z,92.68
2022-10-18T18:07:25.611Z,92.82
2022-10-18T18:08:25.717Z,92.9
2022-10-18T18:09:26.435Z,93.01
2022-10-18T18:10:26.746Z,93.17
2022-10-18T18:11:27.377Z,93.14
2022-10-18T18:12:27.385Z,93.41
2022-10-18T18:13:27.847Z,93.47
2022-10-18T18:14:28.381Z,93.64
2022-10-18T18:15:28.725Z,93.62
2022-10-18T18:16:30.250Z,93.58
2022-10-18T18:17:34.569Z,93.47
2022-10-18T18:18:32.221Z,93.66
2022-10-18T18:19:32.741Z,93.79
2022-10-18T18:20:32.965Z,94.09
2022-10-18T18:21:34.605Z,94.24
2022-10-18T18:22:36.005Z,94.08
2022-10-18T18:23:35.333Z,93.99
2022-10-18T18:24:35.849Z,93.87
2022-10-18T18:25:36.166Z,93.64
2022-10-18T18:26:39.650Z,93.54
2022-10-18T18:27:37.105Z,93.44
2022-10-18T18:28:37.840Z,93.41
2022-10-18T18:29:37.939Z,93.71
2022-10-18T18:30:40.196Z,93.92
2022-10-18T18:31:41.252Z,94.08
2022-10-18T18:32:40.098Z,94.33
2022-10-18T18:33:40.316Z,94.18
2022-10-18T18:34:40.631Z,94.25
2022-10-18T18:35:41.118Z,94.43
2022-10-18T18:36:41.877Z,94.7
2022-10-18T18:37:42.081Z,94.81
2022-10-18T18:38:42.392Z,95.33
2022-10-18T18:39:43.229Z,95.79
2022-10-18T18:40:43.245Z,96.02
2022-10-18T18:41:43.640Z,96.12
2022-10-18T18:42:43.963Z,95.87
2022-10-18T18:43:49.799Z,96.19
2022-10-18T18:44:47.084Z,96.29